Hlavní strana
METAR-TAF:

METAR-TAF

Letiště :

Damašek, Sýrie

zeměpisná šířka: 33-25N, zeměpisná délka: 036-31E, výška: 608 m

Aktuální stav počasí

Zpráva byla vytvořena před 26 minutami, v 15:00 UTC
Severní vítr 4 kt
Teplota 27°C
Vlhkost vzduchu 32%
Tlak 1015 hPa
Viditelnost 10 km a více
Žádná oblačnost pod 1500 m, nevyskytují se cumulonimby.

METAR: OSDI 151500Z 35004KT CAVOK 27/09 Q1015

Čas: 18:26 (15:26 UTC)

Předpověď počasí

Zpráva byla vytvořena před 5 hodinami a 26 minutami, v 10:00 UTC
Předpověď platná od 15 v 12 UTC do 16 v 18 UTC
Jihozápadní vítr 10 kt
Viditelnost 10 km a více
Skoro jasno ve výšce 3000 ft
Změna
od 15 v 18 UTC do 15 v 20 UTC
vítr z různých směrů 3 kt
Viditelnost 10 km a více
Žádná oblačnost pod 1500 m, nevyskytují se cumulonimby.
Dočasný
od 16 v 09 UTC do 16 v 18 UTC
Jihozápadní vítr 10 kt
Viditelnost 10 km a více
Skoro jasno ve výšce 3000 ft

TAF: OSDI 151000Z 1512/1618 22010KT 9999 FEW030 BECMG 1518/1520 VRB03KT CAVOK TEMPO 1609/1618 22010KT 9999 FEW030

Stav a předpovědi počasí z více než 4 000 letišť (zprávy METAR a TAF).

Červené a žluté tečky na mapě představují dostupné meteorologické stanice.

Když kurzor umístíte na tečku, zobrazí se název stanice.

Pak kliknutím zobrazíte stav a předpověď počasí.

Chcete-li změnit mapu, kliknutím na zelené tlačítko se znaménkem +mapu přiblížíte, kliknutím na zelené tlačítko se znaménkem – mapu oddálíte a kliknutím na zelené šipky přejdete na sousední mapy.


METAR-TAF: